Time;durP1;ratioP1;P1;durP2;ratioP2;P2;SDS_P1;SDS_P2;PMS_P1;PMS_P2;Temp;Humidity;BMP_temperature;BMP_pressure;BME280_temperature;BME280_humidity;BME280_pressure;Samples;Min_cycle;Max_cycle;Signal;HPM_P1;HPM_P2
2022/07/18 00:02:49;;;;;;;39.43;36.67;;;;;;;20.76;100.00;102158.01;1995125;71;30843;-73
2022/07/18 00:08:35;;;;;;;38.67;36.00;;;;;;;20.70;100.00;102157.33;2014801;71;30948;-73
2022/07/18 00:14:22;;;;;;;39.13;36.63;;;;;;;20.82;100.00;102133.56;1995244;71;33374;-73
2022/07/18 00:20:11;;;;;;;40.07;37.47;;;;;;;20.20;100.00;102121.86;2016522;71;31002;-73
2022/07/18 00:25:56;;;;;;;42.57;39.60;;;;;;;20.23;100.00;102120.66;2016520;71;30891;-73
2022/07/18 00:31:41;;;;;;;41.43;38.63;;;;;;;20.15;100.00;102116.36;2013219;71;31445;-73
2022/07/18 00:37:26;;;;;;;41.00;38.20;;;;;;;20.31;100.00;102117.68;1998898;71;31068;-72
2022/07/18 00:43:14;;;;;;;42.17;39.37;;;;;;;20.33;100.00;102105.48;2016742;71;31499;-73
2022/07/18 00:49:01;;;;;;;41.27;38.53;;;;;;;20.11;100.00;102102.64;2007636;71;30919;-73
2022/07/18 00:54:46;;;;;;;44.03;41.10;;;;;;;19.83;100.00;102123.02;2017009;71;31501;-72
2022/07/18 01:06:36;;;;;;;46.83;43.73;;;;;;;19.62;100.00;102140.13;2012762;70;31029;-73
2022/07/18 01:12:21;;;;;;;45.87;42.90;;;;;;;19.31;100.00;102129.47;2016585;71;30952;-73
2022/07/18 01:18:06;;;;;;;45.60;42.60;;;;;;;18.99;100.00;102124.77;1991282;71;30896;-73
2022/07/18 01:23:53;;;;;;;44.60;41.60;;;;;;;18.93;100.00;102109.67;2003951;71;30998;-73
2022/07/18 01:29:38;;;;;;;45.73;42.70;;;;;;;18.56;100.00;102105.87;1998390;71;30959;-73
2022/07/18 01:35:25;;;;;;;44.53;41.63;;;;;;;18.36;100.00;102108.14;2005564;71;30908;-73
2022/07/18 01:41:09;;;;;;;45.00;41.90;;;;;;;18.42;100.00;102107.77;2016824;71;31438;-73
2022/07/18 01:46:56;;;;;;;46.30;42.87;;;;;;;18.51;100.00;102106.48;2009446;70;31611;-73
2022/07/18 01:52:41;;;;;;;45.53;42.53;;;;;;;18.44;100.00;102118.72;2016881;70;31468;-73
2022/07/18 01:58:26;;;;;;;43.50;40.60;;;;;;;18.76;100.00;102102.41;2016599;71;31050;-72
2022/07/18 02:04:10;;;;;;;44.50;41.47;;;;;;;18.78;100.00;102096.74;2008134;71;30930;-73
2022/07/18 02:09:55;;;;;;;42.97;40.17;;;;;;;18.70;100.00;102093.81;2016708;71;31372;-73
2022/07/18 02:15:40;;;;;;;43.37;40.57;;;;;;;18.77;100.00;102101.27;2006215;71;30955;-73
2022/07/18 02:21:24;;;;;;;42.53;39.83;;;;;;;18.82;100.00;102101.17;1995108;71;30888;-73
2022/07/18 02:27:09;;;;;;;43.63;40.73;;;;;;;18.95;100.00;102099.80;2013151;71;32862;-73
2022/07/18 02:32:55;;;;;;;44.30;41.40;;;;;;;18.83;100.00;102099.44;1995261;71;33342;-73
2022/07/18 02:38:39;;;;;;;45.03;42.13;;;;;;;18.48;100.00;102103.70;1997046;71;30966;-73
2022/07/18 02:44:23;;;;;;;46.07;43.17;;;;;;;18.42;100.00;102095.67;1995317;71;33366;-73
2022/07/18 02:50:11;;;;;;;45.60;42.47;;;;;;;18.48;100.00;102093.05;2016677;71;30963;-73
2022/07/18 02:55:56;;;;;;;44.40;41.60;;;;;;;18.51;100.00;102093.26;2014817;71;31092;-73
2022/07/18 03:01:40;;;;;;;46.20;43.20;;;;;;;18.65;100.00;102090.52;2002844;71;30984;-73
2022/07/18 03:07:25;;;;;;;46.77;43.77;;;;;;;18.59;100.00;102084.13;1994814;71;30902;-73
2022/07/18 03:13:10;;;;;;;47.80;44.80;;;;;;;18.36;100.00;102087.87;1997029;71;30832;-73
2022/07/18 03:18:54;;;;;;;47.50;44.23;;;;;;;18.31;100.00;102084.34;2003989;71;31392;-73
2022/07/18 03:24:39;;;;;;;49.07;45.67;;;;;;;18.11;100.00;102082.11;2016794;71;33010;-73
2022/07/18 03:30:23;;;;;;;47.80;44.43;;;;;;;18.18;100.00;102068.48;2016716;71;31442;-73
2022/07/18 03:36:07;;;;;;;47.73;44.43;;;;;;;18.00;100.00;102062.34;2016719;71;31572;-72
2022/07/18 03:41:52;;;;;;;47.93;44.73;;;;;;;17.80;100.00;102062.64;1995254;71;31423;-74
2022/07/18 03:47:36;;;;;;;49.80;46.50;;;;;;;17.54;100.00;102055.12;2009329;71;32929;-74
2022/07/18 03:53:22;;;;;;;50.63;47.23;;;;;;;17.67;100.00;102054.41;2008072;71;31367;-74
2022/07/18 03:59:06;;;;;;;49.13;45.90;;;;;;;17.79;100.00;102041.32;2016464;71;33428;-74
2022/07/18 04:04:51;;;;;;;47.23;44.13;;;;;;;17.54;100.00;102033.25;1995264;71;33331;-74
2022/07/18 04:10:39;;;;;;;49.93;46.63;;;;;;;17.62;100.00;102019.38;2016612;71;33425;-74
2022/07/18 04:16:23;;;;;;;50.27;46.77;;;;;;;17.94;100.00;102021.38;1997352;71;33418;-74
2022/07/18 04:22:08;;;;;;;50.37;47.07;;;;;;;17.92;100.00;102014.41;2013165;71;30902;-74
2022/07/18 04:27:53;;;;;;;50.83;47.43;;;;;;;18.15;100.00;102017.08;1995277;71;31437;-74
2022/07/18 04:33:39;;;;;;;50.37;46.77;;;;;;;18.02;100.00;102024.89;2015203;71;30965;-74
2022/07/18 04:39:26;;;;;;;49.40;46.10;;;;;;;17.92;100.00;102015.25;2004456;71;30898;-74
2022/07/18 04:45:12;;;;;;;55.23;51.42;;;;;;;17.77;100.00;102016.88;1984079;71;27984;-74
2022/07/18 04:50:59;;;;;;;51.67;48.33;;;;;;;17.62;100.00;102013.76;2016572;70;32894;-74
2022/07/18 04:56:45;;;;;;;53.07;49.67;;;;;;;17.62;100.00;102011.52;1991533;71;32977;-74
2022/07/18 05:02:29;;;;;;;52.23;48.63;;;;;;;17.70;100.00;102006.05;2004220;71;30884;-74
2022/07/18 05:08:15;;;;;;;50.60;47.20;;;;;;;17.91;100.00;102005.13;2018601;71;31480;-74
2022/07/18 05:13:59;;;;;;;53.70;49.90;;;;;;;18.06;100.00;102000.64;2002229;71;33439;-74
2022/07/18 05:19:47;;;;;;;53.23;49.63;;;;;;;18.25;100.00;101989.35;2012850;71;30964;-74
2022/07/18 05:25:34;;;;;;;50.17;46.60;;;;;;;18.39;100.00;101997.82;2016664;71;32897;-74
2022/07/18 05:31:18;;;;;;;53.47;49.57;;;;;;;18.50;100.00;102005.75;2014410;71;30999;-74
2022/07/18 05:37:03;;;;;;;56.43;52.23;;;;;;;18.60;100.00;102000.54;2011879;71;33327;-74
2022/07/18 05:42:49;;;;;;;54.33;49.83;;;;;;;18.68;100.00;101997.00;2013121;71;30879;-74
2022/07/18 05:48:33;;;;;;;53.10;49.13;;;;;;;18.69;100.00;102004.30;1995249;71;32934;-74
2022/07/18 05:54:19;;;;;;;52.20;48.40;;;;;;;18.65;100.00;102002.66;2004288;71;32876;-74
2022/07/18 06:00:06;;;;;;;51.67;47.90;;;;;;;18.76;100.00;102001.90;2016714;71;30922;-74
2022/07/18 06:05:51;;;;;;;51.63;48.03;;;;;;;18.77;100.00;101996.53;2002642;71;31344;-74
2022/07/18 06:11:37;;;;;;;50.30;46.40;;;;;;;18.92;100.00;101985.52;2000249;71;30995;-74
2022/07/18 06:17:21;;;;;;;49.73;46.30;;;;;;;18.93;100.00;101990.84;1998795;71;30956;-74
2022/07/18 06:23:05;;;;;;;48.63;44.43;;;;;;;19.13;100.00;101995.76;2013102;71;30981;-74
2022/07/18 06:28:49;;;;;;;46.67;43.67;;;;;;;19.39;100.00;101993.47;2008089;71;30893;-73
2022/07/18 06:34:34;;;;;;;46.33;43.30;;;;;;;19.55;100.00;101991.19;2000383;71;31050;-74
2022/07/18 06:40:18;;;;;;;46.50;43.30;;;;;;;19.65;100.00;101990.92;2005946;71;30946;-73
2022/07/18 06:46:02;;;;;;;45.40;42.00;;;;;;;19.80;100.00;101981.27;2011172;71;30981;-74
2022/07/18 06:51:47;;;;;;;44.17;41.17;;;;;;;19.93;100.00;101981.20;2013280;71;31411;-74
2022/07/18 06:57:31;;;;;;;42.83;39.57;;;;;;;20.16;100.00;101988.22;2011648;71;30930;-73
2022/07/18 07:03:15;;;;;;;42.07;39.17;;;;;;;20.43;100.00;101986.68;2001499;71;33382;-75
2022/07/18 07:08:59;;;;;;;36.97;34.33;;;;;;;20.72;100.00;101988.96;1991746;71;33443;-74
2022/07/18 07:14:44;;;;;;;36.73;34.50;;;;;;;20.94;100.00;101985.22;2008309;71;30875;-72
2022/07/18 07:20:33;;;;;;;34.70;32.70;;;;;;;21.44;100.00;101976.61;2015651;71;31373;-73
2022/07/18 07:26:17;;;;;;;33.47;31.47;;;;;;;21.51;100.00;101978.39;2016706;71;30888;-72
2022/07/18 07:32:01;;;;;;;31.43;29.03;;;;;;;21.90;100.00;101984.45;2002506;71;30949;-74
2022/07/18 07:37:48;;;;;;;29.27;27.23;;;;;;;22.00;100.00;101984.70;2014959;71;33312;-74
2022/07/18 07:43:32;;;;;;;30.43;28.40;;;;;;;22.27;100.00;101980.66;2004124;71;31347;-73
2022/07/18 07:49:16;;;;;;;27.47;25.67;;;;;;;22.67;100.00;101981.45;2015052;71;30986;-73
2022/07/18 07:55:06;;;;;;;25.13;23.57;;;;;;;23.01;100.00;101981.89;2004072;71;33378;-73
2022/07/18 08:00:50;;;;;;;24.57;23.17;;;;;;;23.17;100.00;101986.37;2005643;71;30896;-74
2022/07/18 08:06:34;;;;;;;22.37;20.73;;;;;;;23.77;100.00;101975.18;2016612;71;31458;-73
2022/07/18 08:12:18;;;;;;;22.50;21.10;;;;;;;23.96;100.00;101978.36;2000323;71;31078;-72
2022/07/18 08:18:04;;;;;;;20.93;19.73;;;;;;;23.77;100.00;101978.86;1998583;71;31404;-72
2022/07/18 08:23:48;;;;;;;18.50;17.32;;;;;;;23.93;100.00;101983.29;2004137;71;31381;-72
2022/07/18 08:29:35;;;;;;;15.75;14.75;;;;;;;24.37;100.00;101982.53;2007994;71;30848;-73
2022/07/18 08:35:20;;;;;;;16.70;14.90;;;;;;;24.45;100.00;101976.50;2009532;70;30900;-75
2022/07/18 08:41:06;;;;;;;13.80;12.90;;;;;;;24.30;100.00;101969.47;2002531;71;30860;-73
2022/07/18 08:46:53;;;;;;;14.20;13.20;;;;;;;24.21;100.00;101982.97;1998894;71;31324;-73
2022/07/18 08:52:40;;;;;;;14.05;13.05;;;;;;;24.22;100.00;101976.09;2004446;71;30838;-73
2022/07/18 08:58:25;;;;;;;14.80;13.80;;;;;;;24.76;100.00;101975.95;2000721;71;30970;-73
2022/07/18 09:04:17;;;;;;;13.05;12.25;;;;;;;24.41;100.00;101963.59;2001256;70;33381;-73
2022/07/18 09:10:07;;;;;;;14.07;13.08;;;;;;;24.42;100.00;101959.59;2000662;71;30832;-74
2022/07/18 09:16:03;;;;;;;13.78;13.00;;;;;;;24.71;100.00;101961.97;2005878;71;31056;-74
2022/07/18 09:21:49;;;;;;;13.93;13.10;;;;;;;25.06;100.00;101955.25;2006297;71;30996;-74
2022/07/18 09:27:35;;;;;;;14.20;13.32;;;;;;;24.74;100.00;101943.62;2003930;71;31481;-74
2022/07/18 09:33:32;;;;;;;13.72;12.95;;;;;;;24.76;100.00;101934.75;1977791;72;31486;-74
2022/07/18 09:39:20;;;;;;;13.08;12.28;;;;;;;24.66;100.00;101937.46;2013286;71;31447;-74
2022/07/18 09:45:07;;;;;;;12.73;12.03;;;;;;;26.20;100.00;101919.07;2013473;71;31056;-74
2022/07/18 09:51:06;;;;;;;12.78;12.07;;;;;;;25.49;100.00;101928.97;1995314;71;31330;-73
2022/07/18 09:56:51;;;;;;;12.93;12.07;;;;;;;24.90;100.00;101919.00;2004423;71;31020;-72
2022/07/18 10:02:37;;;;;;;12.53;11.90;;;;;;;27.05;100.00;101916.38;2009335;71;30906;-73
2022/07/18 10:08:24;;;;;;;13.40;12.58;;;;;;;27.05;100.00;101917.80;2002597;71;30908;-74
2022/07/18 10:14:10;;;;;;;13.00;12.30;;;;;;;25.43;100.00;101917.00;2000184;71;33396;-74
2022/07/18 10:19:56;;;;;;;12.63;12.03;;;;;;;25.47;100.00;101906.56;1995359;71;31338;-73
2022/07/18 10:25:41;;;;;;;13.25;12.45;;;;;;;25.90;100.00;101902.96;2000707;71;31322;-73
2022/07/18 10:31:29;;;;;;;13.38;12.58;;;;;;;25.41;100.00;101908.61;1991388;71;30853;-71
2022/07/18 10:37:27;;;;;;;12.90;12.20;;;;;;;26.16;100.00;101902.45;2015053;71;30989;-73
2022/07/18 10:43:36;;;;;;;12.63;12.03;;;;;;;26.04;100.00;101901.94;2013023;71;30889;-72
2022/07/18 10:49:21;;;;;;;13.13;12.37;;;;;;;26.13;100.00;101898.33;2018345;71;30895;-74
2022/07/18 10:55:33;;;;;;;12.85;12.15;;;;;;;26.99;100.00;101908.50;1995173;71;30925;-73
2022/07/18 11:01:34;;;;;;;12.33;11.73;;;;;;;25.66;100.00;101901.66;2007784;71;30959;-73
2022/07/18 11:07:37;;;;;;;12.80;12.20;;;;;;;25.45;100.00;101896.73;1998525;71;31493;-73
2022/07/18 11:13:31;;;;;;;12.07;11.48;;;;;;;26.16;100.00;101889.04;2005486;71;31044;-71
2022/07/18 11:19:21;;;;;;;13.10;12.40;;;;;;;27.71;100.00;101882.59;2002628;71;31294;-73
2022/07/18 11:25:16;;;;;;;12.80;12.13;;;;;;;27.48;100.00;101878.84;2004130;71;31133;-71
2022/07/18 11:31:04;;;;;;;13.25;12.55;;;;;;;29.16;100.00;101870.84;2016721;71;30961;-73
2022/07/18 11:36:50;;;;;;;13.08;12.47;;;;;;;29.42;100.00;101874.28;2008524;71;30897;-72
2022/07/18 11:42:45;;;;;;;13.05;12.28;;;;;;;27.53;100.00;101882.23;2013149;71;32345;-74
2022/07/18 11:48:31;;;;;;;12.75;12.15;;;;;;;27.23;100.00;101881.73;2006369;71;31279;-74
2022/07/18 11:54:18;;;;;;;13.40;12.70;;;;;;;28.34;100.00;101865.02;2009866;71;30937;-73
2022/07/18 12:00:16;;;;;;;12.53;11.90;;;;;;;28.77;100.00;101857.39;2019298;71;30968;-72
2022/07/18 12:06:23;;;;;;;12.60;12.00;;;;;;;28.28;100.00;101864.50;2006077;71;30967;-73
2022/07/18 12:12:12;;;;;;;12.82;12.15;;;;;;;27.03;100.00;101856.64;1991547;71;30824;-73
2022/07/18 12:17:56;;;;;;;13.18;12.58;;;;;;;28.53;100.00;101841.25;2006306;71;31299;-73
2022/07/18 12:23:43;;;;;;;16.73;15.65;;;;;;;28.53;100.00;101840.65;1971392;73;31134;-71
2022/07/18 12:30:05;;;;;;;13.00;12.40;;;;;;;28.25;100.00;101834.44;1991364;71;30844;-74
2022/07/18 12:36:11;;;;;;;12.73;12.03;;;;;;;28.41;100.00;101828.00;2003991;71;31415;-73
2022/07/18 12:41:56;;;;;;;13.05;12.43;;;;;;;28.58;100.00;101826.03;2018592;71;31444;-74
2022/07/18 12:47:41;;;;;;;12.68;12.07;;;;;;;28.82;100.00;101825.61;2016704;71;31461;-74
2022/07/18 12:53:28;;;;;;;12.85;12.25;;;;;;;28.27;100.00;101827.16;2014889;71;30996;-73
2022/07/18 12:59:13;;;;;;;13.28;12.63;;;;;;;27.29;100.00;101826.86;2018319;70;31040;-73
2022/07/18 13:04:57;;;;;;;12.78;12.07;;;;;;;29.72;95.61;101804.89;2006209;71;31477;-72
2022/07/18 13:10:43;;;;;;;12.63;12.10;;;;;;;28.04;100.00;101826.30;1998544;71;31935;-73
2022/07/18 13:16:27;;;;;;;12.63;12.03;;;;;;;27.46;100.00;101807.02;2011626;71;30908;-73
2022/07/18 13:22:12;;;;;;;12.93;12.23;;;;;;;27.83;100.00;101808.77;2001449;71;31367;-72
2022/07/18 13:27:56;;;;;;;12.55;12.00;;;;;;;28.73;100.00;101793.60;2004343;71;30924;-73
2022/07/18 13:33:41;;;;;;;12.73;12.03;;;;;;;30.69;82.30;101794.49;2004493;70;31386;-73
2022/07/18 13:39:25;;;;;;;12.28;11.75;;;;;;;30.09;85.21;101792.57;2006210;71;30907;-75
2022/07/18 13:45:16;;;;;;;12.65;12.10;;;;;;;29.18;88.35;101788.90;2011891;71;31006;-73
2022/07/18 13:51:00;;;;;;;12.93;12.20;;;;;;;28.20;99.21;101787.01;2015008;71;31014;-79
2022/07/18 13:56:45;;;;;;;13.20;12.60;;;;;;;28.08;100.00;101775.76;2003066;71;30922;-73
2022/07/18 14:02:31;;;;;;;12.80;12.20;;;;;;;28.33;100.00;101767.62;2011849;71;30814;-72
2022/07/18 14:08:15;;;;;;;12.40;11.85;;;;;;;29.01;86.58;101750.23;1992163;71;31899;-73
2022/07/18 14:14:00;;;;;;;12.43;11.93;;;;;;;29.31;86.62;101745.95;2006605;71;30971;-72
2022/07/18 14:19:45;;;;;;;12.07;11.50;;;;;;;28.46;93.47;101757.62;2001303;70;30878;-73
2022/07/18 14:25:30;;;;;;;12.43;11.90;;;;;;;28.91;90.82;101749.52;2005898;71;31007;-71
2022/07/18 14:31:14;;;;;;;12.55;11.88;;;;;;;28.46;97.00;101743.33;2006096;71;30918;-73
2022/07/18 14:36:59;;;;;;;12.75;12.05;;;;;;;28.89;97.56;101739.88;2015135;71;31462;-71
2022/07/18 14:42:46;;;;;;;12.15;11.55;;;;;;;29.32;96.33;101736.13;1995402;71;31431;-72
2022/07/18 14:48:30;;;;;;;12.65;12.07;;;;;;;29.10;100.00;101739.92;2016445;71;30933;-74
2022/07/18 14:54:15;;;;;;;12.47;11.88;;;;;;;29.55;97.17;101740.27;1998999;71;31441;-73
2022/07/18 14:59:59;;;;;;;12.63;12.03;;;;;;;29.94;90.61;101728.60;2008215;71;31362;-71
2022/07/18 15:05:43;;;;;;;12.95;12.35;;;;;;;29.38;94.11;101728.24;2011376;71;30914;-74
2022/07/18 15:11:27;;;;;;;12.90;12.30;;;;;;;29.09;88.67;101726.25;1985247;71;30828;-74
2022/07/18 15:17:12;;;;;;;12.45;11.95;;;;;;;28.63;82.49;101728.46;2010982;71;30971;-74
2022/07/18 15:22:57;;;;;;;12.43;11.78;;;;;;;28.43;83.36;101719.20;2002604;71;30942;-74
2022/07/18 15:28:41;;;;;;;12.45;11.90;;;;;;;28.98;80.60;101713.01;2014369;71;31348;-72
2022/07/18 15:34:26;;;;;;;12.35;11.75;;;;;;;29.42;80.67;101703.94;2003593;71;30892;-74
2022/07/18 15:40:12;;;;;;;12.28;11.68;;;;;;;27.95;95.87;101704.33;2000665;71;30995;-72
2022/07/18 15:45:57;;;;;;;13.20;12.58;;;;;;;28.66;92.46;101689.11;2004078;71;31505;-74
2022/07/18 15:51:42;;;;;;;12.82;12.23;;;;;;;29.52;83.85;101686.66;2011332;71;31422;-74
2022/07/18 15:57:27;;;;;;;12.03;11.53;;;;;;;29.15;86.65;101681.75;2014858;71;31436;-72
2022/07/18 16:03:11;;;;;;;12.40;11.80;;;;;;;29.78;83.99;101667.87;2000693;71;30910;-71
2022/07/18 16:08:55;;;;;;;12.58;11.97;;;;;;;29.65;89.14;101667.97;1985280;71;31846;-72
2022/07/18 16:14:40;;;;;;;12.50;11.73;;;;;;;29.31;92.46;101669.47;2001159;71;31026;-74
2022/07/18 16:20:25;;;;;;;12.15;11.55;;;;;;;29.73;89.40;101649.62;2002400;71;30910;-75
2022/07/18 16:26:11;;;;;;;12.80;12.00;;;;;;;28.72;100.00;101648.13;2000257;71;31000;-72
2022/07/18 16:31:57;;;;;;;12.55;11.85;;;;;;;28.22;100.00;101652.34;1979041;71;31892;-74
2022/07/18 16:37:40;;;;;;;12.43;11.75;;;;;;;28.29;100.00;101640.40;2009544;71;30880;-73
2022/07/18 16:43:35;;;;;;;12.28;11.75;;;;;;;28.26;100.00;101628.32;2009503;71;32004;-74
2022/07/18 16:49:22;;;;;;;12.13;11.63;;;;;;;28.08;100.00;101625.78;2010042;71;31326;-74
2022/07/18 16:55:12;;;;;;;11.70;10.70;;;;;;;28.17;100.00;101624.09;1992808;70;31832;-70
2022/07/18 17:01:01;;;;;;;28.90;14.10;;;;;;;29.17;93.60;101606.95;2010063;71;31437;-71
2022/07/18 17:06:47;;;;;;;12.13;11.40;;;;;;;29.67;81.66;101609.06;2005903;71;31480;-72
2022/07/18 17:12:34;;;;;;;14.83;12.88;;;;;;;28.96;100.00;101609.00;2002262;71;31433;-74
2022/07/18 17:18:21;;;;;;;14.43;12.93;;;;;;;28.86;99.49;101601.12;2002485;71;30831;-71
2022/07/18 17:24:08;;;;;;;12.90;12.00;;;;;;;28.58;87.62;101587.91;2011030;71;30950;-71
2022/07/18 17:29:55;;;;;;;13.72;12.82;;;;;;;29.01;83.88;101594.31;2007281;71;30892;-71
2022/07/18 17:35:43;;;;;;;12.25;11.65;;;;;;;28.71;88.12;101598.69;2013210;71;30913;-71
2022/07/18 17:41:30;;;;;;;11.80;11.30;;;;;;;28.23;100.00;101603.39;2011544;71;30825;-74
2022/07/18 17:47:17;;;;;;;13.72;12.95;;;;;;;28.77;88.13;101595.71;2008081;71;30920;-71
2022/07/18 17:53:05;;;;;;;12.75;12.15;;;;;;;28.33;97.70;101593.29;2007692;71;31452;-73
2022/07/18 17:58:51;;;;;;;12.60;11.90;;;;;;;29.30;88.92;101584.84;2009357;71;30987;-71
2022/07/18 18:04:35;;;;;;;12.93;12.07;;;;;;;29.00;91.11;101587.58;2004331;71;30891;-74
2022/07/18 18:10:23;;;;;;;12.37;11.68;;;;;;;28.80;95.93;101587.77;2008053;71;31373;-73
2022/07/18 18:16:09;;;;;;;12.07;11.38;;;;;;;28.66;98.46;101589.63;2000155;71;31409;-74
2022/07/18 18:21:54;;;;;;;12.23;11.63;;;;;;;29.09;91.85;101583.19;2009350;71;30993;-71
2022/07/18 18:27:41;;;;;;;12.63;11.93;;;;;;;29.39;97.58;101583.08;2013131;71;30882;-73
2022/07/18 18:33:28;;;;;;;12.20;11.68;;;;;;;29.47;97.77;101575.36;2018527;71;31399;-73
2022/07/18 18:39:13;;;;;;;12.13;11.53;;;;;;;29.47;96.48;101571.06;2009402;71;31471;-71
2022/07/18 18:44:58;;;;;;;12.55;12.00;;;;;;;28.97;100.00;101572.64;2003858;71;31043;-70
2022/07/18 18:50:44;;;;;;;12.53;11.93;;;;;;;29.04;100.00;101568.41;2011498;70;31413;-73
2022/07/18 18:56:29;;;;;;;12.37;11.78;;;;;;;28.85;100.00;101576.58;2013456;71;30831;-73
2022/07/18 19:02:14;;;;;;;12.73;12.07;;;;;;;28.79;100.00;101576.14;2007382;71;31952;-72
2022/07/18 19:07:59;;;;;;;11.70;11.20;;;;;;;28.73;100.00;101568.28;2012912;71;30913;-70
2022/07/18 19:13:44;;;;;;;11.50;11.05;;;;;;;28.77;100.00;101564.86;2015114;71;30960;-73
2022/07/18 19:19:30;;;;;;;11.97;11.28;;;;;;;29.14;100.00;101559.11;1998812;71;31309;-73
2022/07/18 19:25:19;;;;;;;11.60;10.98;;;;;;;28.92;93.11;101554.59;2014623;71;30979;-70
2022/07/18 19:31:03;;;;;;;11.88;11.25;;;;;;;28.91;100.00;101556.44;2004443;71;31490;-65
2022/07/18 19:36:47;;;;;;;12.23;11.57;;;;;;;29.09;100.00;101552.31;1994862;71;31856;-70
2022/07/18 19:42:32;;;;;;;12.07;11.57;;;;;;;29.11;100.00;101555.59;2016634;71;30900;-66
2022/07/18 19:48:18;;;;;;;11.75;11.15;;;;;;;28.81;100.00;101549.98;2002138;71;30887;-68
2022/07/18 19:54:04;;;;;;;11.40;10.90;;;;;;;28.74;100.00;101540.73;2014746;71;31068;-70
2022/07/18 19:59:49;;;;;;;11.65;11.15;;;;;;;28.75;100.00;101542.39;2014915;71;32239;-67
2022/07/18 20:05:35;;;;;;;11.73;11.03;;;;;;;28.31;100.00;101547.14;2014875;71;31037;-67
2022/07/18 20:11:22;;;;;;;13.13;12.40;;;;;;;27.90;100.00;101554.71;2018468;71;31011;-65
2022/07/18 20:17:07;;;;;;;12.28;11.70;;;;;;;28.16;100.00;101560.42;2009966;71;31248;-69
2022/07/18 20:22:52;;;;;;;12.30;11.78;;;;;;;28.41;100.00;101557.90;2014980;71;30964;-69
2022/07/18 20:28:37;;;;;;;12.10;11.50;;;;;;;28.31;100.00;101561.44;2012929;71;31001;-70
2022/07/18 20:34:22;;;;;;;11.63;11.12;;;;;;;28.53;100.00;101566.80;2014816;71;30992;-69
2022/07/18 20:40:10;;;;;;;12.82;12.13;;;;;;;27.59;100.00;101567.33;1991464;71;31790;-69
2022/07/18 20:45:55;;;;;;;12.35;11.70;;;;;;;27.05;100.00;101571.27;1996874;71;30903;-69
2022/07/18 20:51:42;;;;;;;12.53;11.75;;;;;;;26.99;100.00;101576.25;2000674;71;30835;-69
2022/07/18 20:57:27;;;;;;;12.13;11.43;;;;;;;26.43;100.00;101566.79;2007628;71;30885;-70
2022/07/18 21:03:12;;;;;;;11.78;11.15;;;;;;;26.68;100.00;101575.83;2009336;71;31498;-68
2022/07/18 21:08:57;;;;;;;11.90;11.30;;;;;;;26.85;100.00;101577.41;2011497;71;30891;-69
2022/07/18 21:20:45;;;;;;;12.07;11.38;;;;;;;27.20;100.00;101575.20;2000553;71;30818;-70
2022/07/18 21:26:30;;;;;;;12.47;11.57;;;;;;;25.82;100.00;101585.13;2014839;71;31363;-66
2022/07/18 21:32:18;;;;;;;12.10;11.40;;;;;;;25.04;100.00;101582.31;2009231;71;31860;-69
2022/07/18 21:38:03;;;;;;;11.57;11.08;;;;;;;24.84;100.00;101562.30;2002179;71;30956;-68
2022/07/18 21:43:48;;;;;;;12.20;11.50;;;;;;;25.91;100.00;101556.45;2018475;71;31847;-69
2022/07/18 21:49:33;;;;;;;12.68;11.85;;;;;;;24.94;100.00;101563.81;2016546;71;31003;-71
2022/07/18 21:55:21;;;;;;;11.45;10.82;;;;;;;24.64;100.00;101558.28;2004076;71;31007;-71
2022/07/18 22:01:06;;;;;;;11.95;11.30;;;;;;;24.24;100.00;101554.91;2013368;71;32874;-71
2022/07/18 22:06:51;;;;;;;12.47;11.78;;;;;;;23.63;100.00;101550.53;2009964;71;30968;-70
2022/07/18 22:12:36;;;;;;;12.50;11.78;;;;;;;23.55;100.00;101548.06;2011797;71;30971;-71
2022/07/18 22:18:25;;;;;;;12.18;11.53;;;;;;;23.69;100.00;101537.77;2009615;71;30841;-71
2022/07/18 22:24:10;;;;;;;11.65;11.05;;;;;;;23.97;100.00;101537.22;1994904;71;33362;-71
2022/07/18 22:29:55;;;;;;;12.35;11.55;;;;;;;23.94;100.00;101543.62;2000547;71;30878;-71
2022/07/18 22:35:41;;;;;;;12.03;11.20;;;;;;;23.98;100.00;101545.97;2013242;71;31332;-68
2022/07/18 22:41:26;;;;;;;11.70;11.10;;;;;;;23.86;100.00;101536.91;2007836;71;31019;-71
2022/07/18 22:47:12;;;;;;;12.33;11.63;;;;;;;23.52;100.00;101536.03;2015079;71;31386;-71
2022/07/18 22:52:58;;;;;;;12.43;11.68;;;;;;;23.29;100.00;101537.66;2014846;71;30889;-71
2022/07/18 22:58:45;;;;;;;12.60;11.90;;;;;;;23.36;100.00;101529.40;1995386;71;30880;-71
2022/07/18 23:04:31;;;;;;;12.75;12.05;;;;;;;23.11;100.00;101528.55;2004097;71;30957;-68
2022/07/18 23:10:16;;;;;;;13.38;12.58;;;;;;;22.95;100.00;101521.34;2009293;71;30895;-71
2022/07/18 23:16:04;;;;;;;13.93;13.22;;;;;;;22.51;100.00;101528.66;2011723;71;30948;-71
2022/07/18 23:21:49;;;;;;;14.20;13.50;;;;;;;22.30;100.00;101518.56;2011035;71;30908;-71
2022/07/18 23:27:35;;;;;;;16.67;15.87;;;;;;;22.05;100.00;101517.05;2003913;71;30964;-71
2022/07/18 23:33:23;;;;;;;16.82;15.88;;;;;;;22.08;100.00;101511.27;1963544;72;31535;-71
2022/07/18 23:39:06;;;;;;;14.90;14.13;;;;;;;22.12;100.00;101500.95;2016612;71;30974;-71
2022/07/18 23:44:52;;;;;;;14.93;14.03;;;;;;;22.06;100.00;101492.42;2013037;71;30971;-70
2022/07/18 23:50:37;;;;;;;15.20;14.40;;;;;;;21.94;100.00;101497.45;2006135;71;30926;-71
2022/07/18 23:56:22;;;;;;;14.50;13.80;;;;;;;21.96;100.00;101494.25;2011125;71;30961;-70
